createdAt,value
2022-10-23T00:01:51.771Z,99961.53
2022-10-23T00:04:25.212Z,99958.41
2022-10-23T00:06:53.588Z,99966.25
2022-10-23T00:09:24.921Z,99966.00
2022-10-23T00:11:54.370Z,99968.47
2022-10-23T00:14:25.769Z,99987.88
2022-10-23T00:16:54.359Z,99997.94
2022-10-23T00:19:23.053Z,100016.69
2022-10-23T00:21:51.503Z,100015.44
2022-10-23T00:24:20.302Z,100012.31
2022-10-23T00:26:50.498Z,100016.41
2022-10-23T00:29:19.206Z,100012.31
2022-10-23T00:31:49.062Z,100016.59
2022-10-23T00:34:19.880Z,100001.25
2022-10-23T00:36:48.433Z,99996.28
2022-10-23T00:39:17.105Z,100009.91
2022-10-23T00:41:45.446Z,100018.22
2022-10-23T00:44:46.992Z,100009.38
2022-10-23T00:47:16.951Z,100018.13
2022-10-23T00:49:45.865Z,100015.19
2022-10-23T00:52:15.366Z,100010.63
2022-10-23T00:54:45.629Z,100011.47
2022-10-23T00:57:16.899Z,100012.09
2022-10-23T00:59:45.633Z,100008.31
2022-10-23T01:02:14.539Z,100005.44
2022-10-23T01:04:44.805Z,100009.53
2022-10-23T01:07:18.657Z,100006.38
2022-10-23T01:09:54.983Z,100010.28
2022-10-23T01:12:35.557Z,100005.72
2022-10-23T01:15:11.084Z,100005.66
2022-10-23T01:17:44.737Z,100000.31
2022-10-23T01:20:29.646Z,100008.44
2022-10-23T01:23:15.746Z,99999.31
2022-10-23T01:26:03.671Z,100013.59
2022-10-23T01:28:40.978Z,100017.25
2022-10-23T01:31:15.543Z,100011.59
2022-10-23T01:33:48.140Z,100014.25
2022-10-23T01:36:29.311Z,100016.06
2022-10-23T01:39:06.275Z,100018.38
2022-10-23T01:41:40.715Z,100017.19
2022-10-23T01:44:17.378Z,100016.84
2022-10-23T01:46:49.105Z,100015.91
2022-10-23T01:49:20.684Z,100018.75
2022-10-23T01:51:58.003Z,100023.28
2022-10-23T01:54:30.750Z,100016.59
2022-10-23T01:57:00.522Z,100023.25
2022-10-23T01:59:37.179Z,100026.38
2022-10-23T02:02:08.467Z,100021.78
2022-10-23T02:04:41.963Z,100023.28
2022-10-23T02:07:10.738Z,100026.31
2022-10-23T02:09:39.292Z,100023.75
2022-10-23T02:12:10.461Z,100025.91
2022-10-23T02:14:49.549Z,100011.50
2022-10-23T02:17:27.269Z,100010.16
2022-10-23T02:20:03.908Z,100011.28
2022-10-23T02:22:39.060Z,100024.59
2022-10-23T02:25:13.212Z,100018.09
2022-10-23T02:27:47.334Z,100024.31
2022-10-23T02:30:20.965Z,100021.50
2022-10-23T02:32:58.686Z,100025.31
2022-10-23T02:35:27.805Z,100018.28
2022-10-23T02:38:29.895Z,100022.53
2022-10-23T02:41:02.407Z,100025.28
2022-10-23T02:43:40.577Z,100023.06
2022-10-23T02:46:18.340Z,100010.38
2022-10-23T02:48:55.131Z,100013.59
2022-10-23T02:51:33.318Z,100013.47
2022-10-23T02:54:09.604Z,100008.75
2022-10-23T02:56:45.516Z,100013.94
2022-10-23T02:59:24.757Z,100017.34
2022-10-23T03:02:03.883Z,100014.66
2022-10-23T03:04:34.100Z,100024.41
2022-10-23T03:07:02.856Z,100025.28
2022-10-23T03:09:32.516Z,100030.50
2022-10-23T03:12:01.082Z,100035.75
2022-10-23T03:14:34.905Z,100032.22
2022-10-23T03:17:06.347Z,100031.28
2022-10-23T03:19:35.068Z,100034.88
2022-10-23T03:22:06.499Z,100028.66
2022-10-23T03:24:35.233Z,100041.97
2022-10-23T03:27:03.801Z,100041.22
2022-10-23T03:29:34.217Z,100036.66
2022-10-23T03:32:02.599Z,100043.84
2022-10-23T03:34:32.497Z,100034.97
2022-10-23T03:37:03.302Z,100040.38
2022-10-23T03:39:33.750Z,100038.66
2022-10-23T03:42:02.713Z,100043.94
2022-10-23T03:44:32.223Z,100051.81
2022-10-23T03:47:00.917Z,100052.72
2022-10-23T03:49:30.298Z,100051.78
2022-10-23T03:52:07.052Z,100059.97
2022-10-23T03:54:36.045Z,100057.41
2022-10-23T03:57:05.157Z,100067.06
2022-10-23T03:59:35.688Z,100060.09
2022-10-23T04:02:06.864Z,100069.78
2022-10-23T04:04:36.672Z,100071.53
2022-10-23T04:07:06.989Z,100080.59
2022-10-23T04:09:35.844Z,100079.72
2022-10-23T04:12:05.796Z,100075.28
2022-10-23T04:14:34.494Z,100079.66
2022-10-23T04:17:04.066Z,100078.72
2022-10-23T04:19:34.771Z,100082.19
2022-10-23T04:22:03.937Z,100068.97
2022-10-23T04:24:34.156Z,100065.44
2022-10-23T04:27:03.448Z,100063.75
2022-10-23T04:29:32.611Z,100070.81
2022-10-23T04:32:01.374Z,100072.56
2022-10-23T04:34:30.233Z,100080.53
2022-10-23T04:36:59.998Z,100076.94
2022-10-23T04:39:28.688Z,100080.44
2022-10-23T04:41:59.007Z,100074.38
2022-10-23T04:44:30.556Z,100077.00
2022-10-23T04:46:58.971Z,100074.38
2022-10-23T04:49:27.652Z,100085.03
2022-10-23T04:52:15.418Z,100079.75
2022-10-23T04:55:10.205Z,100084.22
2022-10-23T04:57:47.721Z,100086.91
2022-10-23T05:00:18.386Z,100081.75
2022-10-23T05:02:53.229Z,100080.84
2022-10-23T05:05:23.057Z,100080.78
2022-10-23T05:08:15.544Z,100082.59
2022-10-23T05:11:05.805Z,100084.28
2022-10-23T05:13:41.338Z,100079.09
2022-10-23T05:16:11.629Z,100080.03
2022-10-23T05:18:46.817Z,100084.31
2022-10-23T05:21:20.619Z,100091.38
2022-10-23T05:23:51.937Z,100085.16
2022-10-23T05:26:22.373Z,100087.63
2022-10-23T05:28:55.333Z,100082.22
2022-10-23T05:31:25.684Z,100083.13
2022-10-23T05:34:03.151Z,100087.47
2022-10-23T05:36:32.970Z,100083.94
2022-10-23T05:39:03.303Z,100088.28
2022-10-23T05:41:33.770Z,100092.59
2022-10-23T05:44:05.513Z,100105.63
2022-10-23T05:46:54.456Z,100104.59
2022-10-23T05:49:41.777Z,100105.22
2022-10-23T05:52:29.090Z,100093.47
2022-10-23T05:55:16.085Z,100095.13
2022-10-23T05:58:17.308Z,100097.72
2022-10-23T06:01:09.160Z,100107.19
2022-10-23T06:03:54.965Z,100114.16
2022-10-23T06:06:30.317Z,100119.22
2022-10-23T06:08:59.094Z,100114.00
2022-10-23T06:11:27.795Z,100120.19
2022-10-23T06:14:05.397Z,100116.44
2022-10-23T06:16:35.324Z,100123.34
2022-10-23T06:19:04.443Z,100128.50
2022-10-23T06:21:38.138Z,100132.56
2022-10-23T06:24:08.652Z,100134.22
2022-10-23T06:26:50.973Z,100134.84
2022-10-23T06:29:24.028Z,100126.66
2022-10-23T06:31:54.456Z,100128.06
2022-10-23T06:34:23.484Z,100113.69
2022-10-23T06:36:52.413Z,100122.94
2022-10-23T06:39:47.733Z,100134.50
2022-10-23T06:42:25.611Z,100128.25
2022-10-23T06:45:20.321Z,100134.66
2022-10-23T06:48:26.577Z,100131.09
2022-10-23T06:51:22.465Z,100141.88
2022-10-23T06:54:11.376Z,100144.91
2022-10-23T06:57:08.999Z,100149.63
2022-10-23T06:59:45.924Z,100141.38
2022-10-23T07:02:17.558Z,100150.06
2022-10-23T07:04:49.384Z,100156.00
2022-10-23T07:07:24.226Z,100156.25
2022-10-23T07:09:55.286Z,100153.97
2022-10-23T07:12:29.937Z,100152.53
2022-10-23T07:15:27.784Z,100158.34
2022-10-23T07:17:57.605Z,100160.69
2022-10-23T07:20:29.779Z,100158.53
2022-10-23T07:22:59.087Z,100154.69
2022-10-23T07:25:38.944Z,100158.56
2022-10-23T07:28:14.956Z,100144.59
2022-10-23T07:31:04.018Z,100147.34
2022-10-23T07:34:02.079Z,100153.16
2022-10-23T07:36:34.630Z,100146.47
2022-10-23T07:39:07.675Z,100156.94
2022-10-23T07:41:46.267Z,100162.78
2022-10-23T07:44:16.164Z,100174.38
2022-10-23T07:47:10.196Z,100179.94
2022-10-23T07:49:43.557Z,100175.00
2022-10-23T07:52:18.330Z,100174.63
2022-10-23T07:55:31.454Z,100166.97
2022-10-23T08:01:19.868Z,100169.41
2022-10-23T08:03:49.942Z,100175.75
2022-10-23T08:06:21.608Z,100170.59
2022-10-23T08:09:03.880Z,100180.69
2022-10-23T08:11:57.434Z,100181.91
2022-10-23T08:14:29.660Z,100172.44
2022-10-23T08:16:59.773Z,100179.41
2022-10-23T08:20:03.864Z,100181.44
2022-10-23T08:22:40.848Z,100180.47
2022-10-23T08:25:12.468Z,100178.75
2022-10-23T08:27:45.027Z,100183.19
2022-10-23T08:30:18.272Z,100182.59
2022-10-23T08:32:56.407Z,100175.88
2022-10-23T09:29:22.588Z,100188.22
2022-10-23T09:31:53.363Z,100186.06
2022-10-23T09:34:25.104Z,100178.53
2022-10-23T09:39:31.873Z,100174.03
2022-10-23T09:42:02.777Z,100171.88
2022-10-23T09:44:34.347Z,100171.47
2022-10-23T09:47:12.278Z,100175.31
2022-10-23T09:49:47.574Z,100168.34
2022-10-23T09:52:31.062Z,100158.06
2022-10-23T09:55:02.905Z,100155.66
2022-10-23T09:57:37.135Z,100159.66
2022-10-23T10:00:17.366Z,100160.13
2022-10-23T10:02:57.335Z,100150.91
2022-10-23T10:05:45.896Z,100147.09
2022-10-23T15:33:06.808Z,99890.50
2022-10-23T15:35:35.678Z,99884.91
2022-10-23T15:38:04.089Z,99885.44
2022-10-23T15:40:32.788Z,99883.31
2022-10-23T15:43:02.704Z,99878.69
2022-10-23T15:45:31.981Z,99882.81
2022-10-23T15:48:00.890Z,99877.59
2022-10-23T15:50:31.036Z,99875.00
2022-10-23T15:52:59.535Z,99876.25
2022-10-23T15:55:29.060Z,99870.91
2022-10-23T15:58:01.944Z,99873.16
2022-10-23T16:00:30.757Z,99876.25
2022-10-23T16:02:59.283Z,99885.56
2022-10-23T16:05:28.373Z,99888.56
2022-10-23T16:07:58.238Z,99874.00
2022-10-23T16:10:26.860Z,99881.78
2022-10-23T16:12:55.380Z,99881.78
2022-10-23T16:15:24.089Z,99875.75
2022-10-23T16:17:52.602Z,99875.94
2022-10-23T16:20:21.708Z,99882.94
2022-10-23T16:22:50.181Z,99876.13
2022-10-23T16:25:20.253Z,99876.19
2022-10-23T16:27:49.139Z,99878.19
2022-10-23T16:30:17.799Z,99877.28
2022-10-23T16:32:46.393Z,99880.66
2022-10-23T16:35:15.013Z,99882.38
2022-10-23T16:37:57.368Z,99879.59
2022-10-23T16:40:27.871Z,99884.19
2022-10-23T16:43:14.674Z,99886.84
2022-10-23T16:45:48.366Z,99882.66
2022-10-23T16:48:16.932Z,99879.72
2022-10-23T16:50:45.660Z,99882.94
2022-10-23T16:53:14.261Z,99882.94
2022-10-23T16:55:44.383Z,99884.50
2022-10-23T16:58:12.976Z,99882.50
2022-10-23T17:00:41.745Z,99886.66
2022-10-23T17:03:10.849Z,99886.66
2022-10-23T17:05:39.469Z,99885.59
2022-10-23T17:08:08.011Z,99888.19
2022-10-23T17:10:36.893Z,99891.63
2022-10-23T17:13:06.795Z,99887.41
2022-10-23T17:15:35.597Z,99886.75
2022-10-23T17:18:04.063Z,99879.91
2022-10-23T17:20:33.079Z,99887.63
2022-10-23T17:23:01.395Z,99886.66
2022-10-23T17:25:30.268Z,99882.63
2022-10-23T17:27:58.825Z,99882.06
2022-10-23T17:30:29.003Z,99877.38
2022-10-23T17:32:59.562Z,99878.25
2022-10-23T17:35:30.642Z,99869.63
2022-10-23T17:37:59.593Z,99876.00
2022-10-23T17:40:30.866Z,99877.88
2022-10-23T17:42:59.742Z,99872.56
2022-10-23T17:45:31.068Z,99875.41
2022-10-23T17:47:59.702Z,99882.47
2022-10-23T17:50:30.948Z,99879.09
2022-10-23T17:53:01.153Z,99877.56
2022-10-23T17:55:50.746Z,99874.47
2022-10-23T17:58:19.688Z,99875.81
2022-10-23T18:00:54.895Z,99871.34
2022-10-23T18:03:23.474Z,99861.84
2022-10-23T18:05:52.298Z,99863.81
2022-10-23T18:08:21.133Z,99872.84
2022-10-23T18:10:50.978Z,99874.97
2022-10-23T18:13:19.569Z,99864.81
2022-10-23T18:15:48.453Z,99867.69
2022-10-23T18:18:18.530Z,99868.53
2022-10-23T18:20:49.873Z,99858.94
2022-10-23T18:23:19.464Z,99864.97
2022-10-23T18:25:48.399Z,99863.22
2022-10-23T18:28:16.993Z,99865.03
2022-10-23T18:30:47.250Z,99867.03
2022-10-23T18:33:20.265Z,99873.31
2022-10-23T18:35:49.634Z,99873.91
2022-10-23T18:38:18.157Z,99873.06
2022-10-23T18:40:46.866Z,99867.34
2022-10-23T18:43:20.009Z,99877.47
2022-10-23T18:46:00.433Z,99871.88
2022-10-23T18:48:30.906Z,99869.94
2022-10-23T18:50:59.654Z,99872.25
2022-10-23T18:53:29.924Z,99866.72
2022-10-23T18:55:58.647Z,99863.22
2022-10-23T18:58:27.875Z,99853.44
2022-10-23T19:00:56.527Z,99858.91
2022-10-23T19:03:24.900Z,99855.31
2022-10-23T19:05:54.881Z,99860.56
2022-10-23T19:08:23.288Z,99857.84
2022-10-23T19:10:53.978Z,99845.69
2022-10-23T19:13:22.457Z,99850.16
2022-10-23T19:15:51.497Z,99849.34
2022-10-23T19:18:20.019Z,99846.03
2022-10-23T19:20:48.827Z,99854.06
2022-10-23T19:23:18.559Z,99848.63
2022-10-23T19:25:48.291Z,99847.22
2022-10-23T19:28:17.177Z,99834.66
2022-10-23T19:30:45.788Z,99838.66
2022-10-23T19:33:14.491Z,99839.59
2022-10-23T19:35:43.767Z,99830.13
2022-10-23T19:38:13.175Z,99827.59
2022-10-23T19:40:43.317Z,99829.63
2022-10-23T19:43:11.822Z,99823.44
2022-10-23T19:45:47.577Z,99818.31
2022-10-23T19:48:23.905Z,99824.75
2022-10-23T19:50:53.465Z,99818.94
2022-10-23T19:53:24.591Z,99821.69
2022-10-23T19:56:02.955Z,99825.31
2022-10-23T19:58:31.724Z,99831.63
2022-10-23T20:01:07.422Z,99830.28
2022-10-23T20:03:36.363Z,99820.78
2022-10-23T20:06:05.192Z,99813.00
2022-10-23T20:08:35.076Z,99824.34
2022-10-23T20:11:06.216Z,99830.84
2022-10-23T20:13:35.513Z,99835.56
2022-10-23T20:16:04.472Z,99841.75
2022-10-23T20:18:32.834Z,99852.47
2022-10-23T20:21:03.351Z,99854.88
2022-10-23T20:23:32.716Z,99848.69
2022-10-23T20:26:09.483Z,99832.25
2022-10-23T20:28:40.676Z,99834.78
2022-10-23T20:31:11.993Z,99836.91
2022-10-23T20:34:13.591Z,99828.22
2022-10-23T20:36:48.230Z,99823.63
2022-10-23T20:39:20.323Z,99827.75
2022-10-23T20:41:51.050Z,99816.28
2022-10-23T20:44:20.956Z,99811.03
2022-10-23T20:46:50.767Z,99806.34
2022-10-23T20:49:20.545Z,99820.50
2022-10-23T20:51:54.978Z,99815.84
2022-10-23T20:54:28.932Z,99814.91
2022-10-23T20:57:00.640Z,99817.78
2022-10-23T21:00:02.209Z,99818.25
2022-10-23T21:03:40.040Z,99823.75
2022-10-23T21:07:11.136Z,99825.22
2022-10-23T21:10:12.947Z,99820.16
2022-10-23T21:12:44.293Z,99825.03
2022-10-23T21:15:36.545Z,99819.16
2022-10-23T21:18:26.452Z,99818.91
2022-10-23T21:21:05.368Z,99824.38
2022-10-23T21:23:35.585Z,99817.16
2022-10-23T21:26:10.427Z,99814.44
2022-10-23T21:28:55.696Z,99809.50
2022-10-23T21:32:01.027Z,99817.34
2022-10-23T21:34:34.951Z,99814.75
2022-10-23T21:37:14.493Z,99809.13
2022-10-23T21:39:47.190Z,99811.00
2022-10-23T21:42:20.695Z,99805.81
2022-10-23T21:44:58.153Z,99803.50
2022-10-23T21:47:51.934Z,99812.66
2022-10-23T21:50:24.130Z,99801.06
2022-10-23T21:52:58.390Z,99803.38
2022-10-23T21:55:29.627Z,99808.88
2022-10-23T21:58:20.640Z,99801.69
2022-10-23T22:00:57.795Z,99804.34
2022-10-23T22:03:30.663Z,99802.72
2022-10-23T22:06:07.792Z,99811.81
2022-10-23T22:09:01.523Z,99810.63
2022-10-23T22:11:46.184Z,99803.00
2022-10-23T22:14:33.517Z,99813.56
2022-10-23T22:17:34.465Z,99813.13
2022-10-23T22:20:34.978Z,99815.72
2022-10-23T22:23:09.960Z,99812.00
2022-10-23T22:25:55.601Z,99810.41
2022-10-23T22:28:25.926Z,99812.94
2022-10-23T22:30:57.146Z,99806.78
2022-10-23T22:33:28.922Z,99810.88
2022-10-23T22:36:03.621Z,99815.72
2022-10-23T22:38:56.363Z,99818.06
2022-10-23T22:41:30.450Z,99815.63
2022-10-23T22:44:05.026Z,99811.88
2022-10-23T22:46:36.413Z,99807.25
2022-10-23T22:49:07.557Z,99808.09
2022-10-23T22:51:43.040Z,99809.69
2022-10-23T22:54:20.075Z,99808.03
2022-10-23T22:57:10.467Z,99808.09
2022-10-23T23:00:04.735Z,99812.56
2022-10-23T23:02:37.575Z,99809.75
2022-10-23T23:05:13.587Z,99806.59
2022-10-23T23:07:45.856Z,99809.13
2022-10-23T23:10:22.993Z,99807.09
2022-10-23T23:13:22.040Z,99807.63
2022-10-23T23:23:16.995Z,99805.69
2022-10-23T23:26:03.771Z,99803.72
2022-10-23T23:29:09.194Z,99808.78
2022-10-23T23:31:42.332Z,99804.47
2022-10-23T23:34:12.775Z,99807.84
2022-10-23T23:36:47.874Z,99804.03
2022-10-23T23:39:18.685Z,99799.84
2022-10-23T23:41:48.060Z,99802.38
2022-10-23T23:44:50.268Z,99798.56
2022-10-23T23:47:36.930Z,99791.09
2022-10-23T23:50:08.859Z,99792.03
2022-10-23T23:52:47.981Z,99792.88
2022-10-23T23:55:24.232Z,99793.75
2022-10-23T23:57:55.089Z,99792.88
